Time;durP1;ratioP1;P1;durP2;ratioP2;P2;SDS_P1;SDS_P2;PMS_P1;PMS_P2;Temp;Humidity;BMP_temperature;BMP_pressure;BME280_temperature;BME280_humidity;BME280_pressure;Samples;Min_cycle;Max_cycle;Signal;HPM_P1;HPM_P2
2023/04/17 00:00:49;;;;;;;20.10;12.35;;;10.10;36.70;;;;;;4998024;28;20018;-81
2023/04/17 00:03:15;;;;;;;18.17;13.15;;;10.10;36.90;;;;;;5013152;28;20056;-81
2023/04/17 00:05:44;;;;;;;16.52;12.27;;;10.00;36.80;;;;;;4985178;28;20042;-81
2023/04/17 00:08:11;;;;;;;22.75;13.88;;;10.00;36.90;;;;;;4996503;28;20164;-81
2023/04/17 00:10:37;;;;;;;21.05;13.18;;;9.90;36.90;;;;;;4995571;28;20050;-82
2023/04/17 00:13:02;;;;;;;19.55;13.40;;;10.00;37.00;;;;;;4998716;28;20080;-80
2023/04/17 00:15:28;;;;;;;20.52;12.57;;;9.90;37.10;;;;;;4997938;28;20073;-81
2023/04/17 00:17:54;;;;;;;19.52;13.75;;;9.90;37.20;;;;;;4998444;28;20101;-82
2023/04/17 00:20:20;;;;;;;23.65;14.07;;;9.90;37.10;;;;;;4978576;28;20374;-81
2023/04/17 00:22:46;;;;;;;22.10;13.38;;;9.90;37.20;;;;;;5001527;28;20102;-80
2023/04/17 00:25:13;;;;;;;17.23;12.93;;;9.90;37.30;;;;;;5001820;28;20041;-83
2023/04/17 00:27:41;;;;;;;18.05;13.57;;;9.80;37.30;;;;;;5006610;28;20026;-81
2023/04/17 00:30:08;;;;;;;18.20;14.32;;;9.80;37.40;;;;;;4982914;28;20484;-81
2023/04/17 00:32:34;;;;;;;25.45;14.30;;;9.70;37.50;;;;;;4986605;28;20489;-82
2023/04/17 00:35:00;;;;;;;17.17;13.13;;;9.70;37.60;;;;;;5006460;28;20033;-80
2023/04/17 00:37:26;;;;;;;17.10;13.90;;;9.60;37.70;;;;;;4986693;28;20038;-82
2023/04/17 00:39:52;;;;;;;21.45;14.48;;;9.60;37.90;;;;;;5012831;28;20029;-80
2023/04/17 00:42:18;;;;;;;19.33;13.75;;;9.50;37.90;;;;;;5000093;28;20022;-81
2023/04/17 00:44:43;;;;;;;19.10;13.60;;;9.50;38.00;;;;;;5007920;28;20022;-81
2023/04/17 00:47:10;;;;;;;19.58;13.60;;;9.50;38.10;;;;;;5010501;28;20026;-81
2023/04/17 00:49:36;;;;;;;25.35;13.07;;;9.50;38.10;;;;;;5011784;28;20109;-80
2023/04/17 00:52:02;;;;;;;22.10;15.55;;;9.50;38.30;;;;;;5009479;28;20021;-82
2023/04/17 00:54:30;;;;;;;19.85;14.43;;;9.50;38.30;;;;;;4987578;28;20028;-82
2023/04/17 00:56:57;;;;;;;24.40;14.90;;;9.50;38.30;;;;;;5013290;28;20010;-80
2023/04/17 00:59:24;;;;;;;24.80;15.75;;;9.50;38.40;;;;;;5009166;28;20089;-80
2023/04/17 01:01:49;;;;;;;27.05;16.23;;;9.50;38.50;;;;;;4997479;28;20046;-80
2023/04/17 01:04:15;;;;;;;18.23;14.13;;;9.50;38.60;;;;;;5016432;28;20072;-80
2023/04/17 01:06:41;;;;;;;26.40;15.77;;;9.50;38.60;;;;;;5016167;28;20395;-83
2023/04/17 01:09:07;;;;;;;24.45;15.07;;;9.50;38.70;;;;;;5008301;28;20083;-82
2023/04/17 01:11:33;;;;;;;27.63;16.02;;;9.50;38.70;;;;;;5007053;28;20037;-81
2023/04/17 01:13:59;;;;;;;20.05;14.60;;;9.50;38.80;;;;;;5004994;28;20018;-82
2023/04/17 01:16:26;;;;;;;26.50;16.17;;;9.50;38.80;;;;;;4998038;28;20036;-81
2023/04/17 01:18:52;;;;;;;29.00;17.67;;;9.40;39.40;;;;;;5009295;28;20030;-84
2023/04/17 01:21:18;;;;;;;28.35;17.00;;;9.40;39.00;;;;;;4999322;28;20472;-80
2023/04/17 01:23:50;;;;;;;29.10;14.82;;;9.50;39.20;;;;;;4997478;28;20025;-81
2023/04/17 01:26:21;;;;;;;20.05;15.57;;;9.40;39.00;;;;;;5005607;28;20395;-80
2023/04/17 01:28:51;;;;;;;19.27;16.08;;;9.40;39.00;;;;;;5000980;28;20420;-80
2023/04/17 01:31:17;;;;;;;24.48;16.75;;;9.40;39.10;;;;;;4991895;28;20080;-81
2023/04/17 01:33:43;;;;;;;24.80;16.05;;;9.40;39.10;;;;;;5000106;28;20022;-81
2023/04/17 01:36:10;;;;;;;24.58;16.50;;;9.40;39.10;;;;;;4995992;28;20057;-80
2023/04/17 01:38:35;;;;;;;23.73;16.05;;;9.40;39.10;;;;;;4998011;28;20039;-81
2023/04/17 01:41:08;;;;;;;24.70;16.30;;;9.40;39.20;;;;;;5015334;28;20025;-82
2023/04/17 01:43:39;;;;;;;18.95;15.70;;;9.30;39.10;;;;;;4979985;28;20369;-82
2023/04/17 01:46:06;;;;;;;25.80;16.88;;;9.30;39.30;;;;;;5013503;28;20080;-81
2023/04/17 01:48:32;;;;;;;23.38;14.88;;;9.30;39.40;;;;;;5014432;28;20472;-82
2023/04/17 01:50:59;;;;;;;25.37;16.33;;;9.30;39.30;;;;;;5001450;28;20395;-81
2023/04/17 01:53:25;;;;;;;25.77;17.45;;;9.20;39.30;;;;;;5004151;28;20117;-82
2023/04/17 01:55:51;;;;;;;24.73;17.05;;;9.20;39.40;;;;;;4996330;28;20585;-80
2023/04/17 01:58:17;;;;;;;29.60;15.85;;;9.20;39.40;;;;;;4996940;28;20073;-81
2023/04/17 02:00:45;;;;;;;24.67;15.98;;;9.20;39.40;;;;;;5002350;28;20061;-81
2023/04/17 02:03:11;;;;;;;26.65;16.95;;;9.10;39.40;;;;;;4998546;28;20053;-81
2023/04/17 02:05:37;;;;;;;24.15;17.30;;;9.10;39.50;;;;;;4996461;28;20030;-80
2023/04/17 02:08:03;;;;;;;26.25;16.52;;;9.10;39.60;;;;;;4999482;28;20546;-81
2023/04/17 02:10:29;;;;;;;22.17;17.00;;;9.00;40.10;;;;;;4999431;28;20056;-80
2023/04/17 02:12:55;;;;;;;23.00;16.58;;;9.00;39.80;;;;;;5008557;28;20030;-80
2023/04/17 02:15:21;;;;;;;24.70;17.60;;;9.00;39.70;;;;;;5014499;28;20029;-80
2023/04/17 02:17:47;;;;;;;25.58;18.00;;;9.00;39.80;;;;;;5001148;28;20484;-81
2023/04/17 02:20:13;;;;;;;28.13;17.85;;;9.00;39.90;;;;;;4996072;28;20053;-83
2023/04/17 02:22:39;;;;;;;32.90;18.20;;;9.00;39.90;;;;;;4997212;28;20018;-81
2023/04/17 02:25:05;;;;;;;24.67;16.65;;;9.00;40.00;;;;;;5009361;28;20034;-81
2023/04/17 02:27:31;;;;;;;28.60;18.48;;;9.00;40.00;;;;;;4986506;28;20065;-81
2023/04/17 02:29:57;;;;;;;26.50;18.88;;;9.00;40.10;;;;;;5000090;28;20017;-80
2023/04/17 02:32:22;;;;;;;21.52;17.42;;;9.00;40.00;;;;;;4996888;28;20015;-82
2023/04/17 02:34:48;;;;;;;19.23;16.55;;;9.00;40.00;;;;;;5004692;28;20026;-81
2023/04/17 02:37:14;;;;;;;24.10;17.35;;;9.00;40.00;;;;;;4998434;28;20023;-81
2023/04/17 02:39:40;;;;;;;30.63;18.83;;;9.10;40.00;;;;;;5001831;28;20510;-81
2023/04/17 02:42:06;;;;;;;22.13;16.58;;;9.10;40.10;;;;;;5002823;28;20025;-81
2023/04/17 02:44:32;;;;;;;24.70;16.83;;;9.20;40.00;;;;;;5002690;28;20037;-82
2023/04/17 02:46:58;;;;;;;26.20;16.90;;;9.30;39.90;;;;;;4996209;28;20022;-82
2023/04/17 02:49:23;;;;;;;21.35;16.27;;;9.30;39.90;;;;;;5006764;28;20092;-82
2023/04/17 02:51:49;;;;;;;22.65;16.20;;;9.30;39.80;;;;;;4989112;28;20018;-83
2023/04/17 02:54:15;;;;;;;23.17;16.83;;;9.40;39.80;;;;;;5001630;28;20468;-83
2023/04/17 02:56:41;;;;;;;25.65;16.50;;;9.40;39.90;;;;;;5009957;28;20162;-82
2023/04/17 02:59:07;;;;;;;27.83;18.23;;;9.40;40.00;;;;;;5010206;28;20057;-82
2023/04/17 03:01:36;;;;;;;23.63;16.23;;;9.40;40.00;;;;;;5012713;28;20094;-82
2023/04/17 03:04:02;;;;;;;26.20;18.33;;;9.40;39.90;;;;;;5006961;28;20479;-82
2023/04/17 03:06:29;;;;;;;26.92;18.48;;;9.50;40.10;;;;;;4997435;28;20056;-82
2023/04/17 03:08:55;;;;;;;24.30;17.03;;;9.40;40.20;;;;;;5015921;28;20026;-82
2023/04/17 03:11:20;;;;;;;24.42;17.40;;;9.50;40.00;;;;;;5019343;28;20392;-81
2023/04/17 03:13:46;;;;;;;23.15;16.77;;;9.50;39.80;;;;;;5017685;28;20026;-82
2023/04/17 03:16:12;;;;;;;25.02;18.40;;;9.50;39.90;;;;;;5016454;28;20037;-81
2023/04/17 03:18:41;;;;;;;28.48;17.65;;;9.60;40.10;;;;;;5003478;28;20034;-80
2023/04/17 03:21:07;;;;;;;27.13;16.30;;;9.60;40.00;;;;;;5005609;28;20057;-81
2023/04/17 03:23:33;;;;;;;24.02;16.58;;;9.70;39.90;;;;;;5016539;28;20034;-82
2023/04/17 03:25:59;;;;;;;27.65;18.80;;;9.70;39.70;;;;;;5004745;28;20400;-80
2023/04/17 03:28:25;;;;;;;26.30;17.20;;;9.70;39.80;;;;;;5004132;28;20507;-82
2023/04/17 03:30:53;;;;;;;25.52;16.35;;;9.70;39.70;;;;;;5001026;28;20134;-82
2023/04/17 03:33:19;;;;;;;23.73;16.15;;;9.70;39.60;;;;;;4997927;28;20040;-83
2023/04/17 03:35:45;;;;;;;30.88;17.77;;;9.80;39.70;;;;;;5001227;28;20098;-83
2023/04/17 03:38:11;;;;;;;26.92;16.90;;;9.80;39.70;;;;;;5002943;28;20030;-81
2023/04/17 03:40:37;;;;;;;27.70;17.40;;;9.80;39.50;;;;;;4982082;28;20027;-80
2023/04/17 03:43:03;;;;;;;28.77;16.83;;;9.90;39.60;;;;;;5009885;28;20026;-81
2023/04/17 03:45:29;;;;;;;26.35;15.27;;;9.90;39.50;;;;;;5004595;28;20088;-80
2023/04/17 03:47:55;;;;;;;21.48;15.30;;;9.90;39.40;;;;;;5010187;28;20026;-81
2023/04/17 03:50:21;;;;;;;23.88;16.27;;;9.90;39.40;;;;;;5002958;28;20033;-81
2023/04/17 03:52:47;;;;;;;30.92;17.63;;;9.90;39.40;;;;;;4995517;28;20053;-81
2023/04/17 03:55:13;;;;;;;19.38;16.27;;;10.00;39.40;;;;;;5008520;28;20476;-80
2023/04/17 03:57:39;;;;;;;20.02;16.02;;;10.10;39.40;;;;;;5004440;28;20028;-82
2023/04/17 04:00:09;;;;;;;24.35;16.92;;;10.20;39.30;;;;;;5004019;28;20411;-81
2023/04/17 04:02:35;;;;;;;22.02;16.58;;;10.30;39.10;;;;;;5004989;28;20046;-82
2023/04/17 04:05:01;;;;;;;27.88;16.17;;;10.40;39.10;;;;;;4986973;28;20026;-81
2023/04/17 04:07:27;;;;;;;27.42;15.65;;;10.40;38.90;;;;;;5009787;28;20019;-82
2023/04/17 04:09:53;;;;;;;23.73;15.75;;;10.40;39.10;;;;;;5001085;28;20022;-83
2023/04/17 04:12:19;;;;;;;24.50;16.13;;;10.50;39.00;;;;;;4988801;28;20034;-81
2023/04/17 04:14:45;;;;;;;26.73;17.33;;;10.60;38.80;;;;;;5009860;28;20097;-81
2023/04/17 04:17:10;;;;;;;22.48;16.02;;;10.70;38.50;;;;;;5003740;28;20033;-82
2023/04/17 04:19:36;;;;;;;26.35;15.48;;;10.80;38.20;;;;;;4997605;28;20044;-82
2023/04/17 04:22:03;;;;;;;26.58;16.35;;;10.90;38.10;;;;;;4998773;28;20013;-81
2023/04/17 04:24:29;;;;;;;28.90;15.47;;;11.00;38.10;;;;;;5006693;28;20061;-81
2023/04/17 04:27:01;;;;;;;21.58;16.17;;;11.10;38.00;;;;;;4996317;28;20023;-82
2023/04/17 04:29:27;;;;;;;21.73;15.25;;;11.20;37.90;;;;;;5002330;28;20033;-82
2023/04/17 04:31:52;;;;;;;20.60;16.20;;;11.30;38.40;;;;;;5001875;28;20014;-81
2023/04/17 04:34:18;;;;;;;19.25;14.77;;;11.30;37.70;;;;;;5000229;28;20037;-82
2023/04/17 04:36:48;;;;;;;19.52;15.32;;;11.30;37.50;;;;;;5016197;28;20104;-82
2023/04/17 04:39:19;;;;;;;24.00;14.93;;;11.30;37.60;;;;;;5007853;28;20034;-81
2023/04/17 04:41:51;;;;;;;23.90;14.10;;;11.40;37.60;;;;;;5008316;28;20105;-81
2023/04/17 04:44:18;;;;;;;19.27;14.45;;;11.40;37.60;;;;;;5000754;28;20033;-80
2023/04/17 04:46:44;;;;;;;24.90;14.95;;;11.30;37.50;;;;;;5005780;28;20028;-82
2023/04/17 04:49:11;;;;;;;28.58;16.45;;;11.30;37.50;;;;;;5008943;28;20103;-81
2023/04/17 04:51:38;;;;;;;24.70;15.20;;;11.30;37.60;;;;;;5003664;28;20062;-80
2023/04/17 04:54:04;;;;;;;21.98;14.93;;;11.30;37.90;;;;;;5007911;28;20412;-83
2023/04/17 04:56:31;;;;;;;18.15;14.15;;;11.30;37.80;;;;;;5008433;28;20106;-81
2023/04/17 04:58:56;;;;;;;24.40;16.15;;;11.30;37.50;;;;;;4987476;28;20035;-81
2023/04/17 05:01:23;;;;;;;20.42;15.07;;;11.40;37.80;;;;;;5002911;28;20027;-81
2023/04/17 05:03:48;;;;;;;18.55;14.63;;;11.40;37.70;;;;;;5009679;28;20088;-82
2023/04/17 05:06:14;;;;;;;28.27;16.92;;;11.40;37.80;;;;;;5023627;28;20021;-81
2023/04/17 05:08:40;;;;;;;27.77;15.85;;;11.60;37.90;;;;;;5016875;28;20037;-82
2023/04/17 05:11:06;;;;;;;23.27;15.98;;;11.70;37.60;;;;;;5003665;28;20023;-80
2023/04/17 05:13:32;;;;;;;28.75;15.43;;;11.70;37.40;;;;;;5004091;28;20130;-80
2023/04/17 05:15:58;;;;;;;24.10;15.60;;;11.70;37.30;;;;;;5007316;28;20137;-80
2023/04/17 05:18:24;;;;;;;21.15;15.23;;;11.80;37.40;;;;;;5014716;28;20130;-81
2023/04/17 05:20:50;;;;;;;25.83;14.32;;;11.80;37.20;;;;;;5006622;28;20033;-80
2023/04/17 05:23:20;;;;;;;27.58;16.20;;;11.80;37.10;;;;;;5008705;28;20021;-80
2023/04/17 05:25:46;;;;;;;21.08;14.82;;;11.80;37.30;;;;;;5002137;28;20482;-81
2023/04/17 05:28:12;;;;;;;19.50;14.13;;;11.80;37.40;;;;;;5011822;28;20451;-82
2023/04/17 05:30:38;;;;;;;27.40;15.25;;;11.80;37.40;;;;;;4998962;28;20117;-82
2023/04/17 05:33:04;;;;;;;21.85;15.48;;;11.80;37.30;;;;;;5000644;28;20033;-81
2023/04/17 05:35:30;;;;;;;19.25;14.45;;;11.80;37.20;;;;;;4985392;28;20029;-83
2023/04/17 05:37:56;;;;;;;23.13;14.27;;;11.80;37.10;;;;;;5002836;28;20036;-81
2023/04/17 05:40:22;;;;;;;22.40;15.00;;;11.80;36.80;;;;;;5012141;28;20106;-81
2023/04/17 05:42:48;;;;;;;28.75;14.98;;;11.90;37.00;;;;;;4998093;28;20022;-81
2023/04/17 05:45:15;;;;;;;24.42;15.00;;;12.20;37.00;;;;;;4999833;28;20080;-80
2023/04/17 05:47:41;;;;;;;20.60;14.63;;;12.50;36.60;;;;;;5000459;28;20052;-80
2023/04/17 05:50:08;;;;;;;22.45;14.80;;;13.00;36.20;;;;;;5000723;28;20088;-80
2023/04/17 05:52:34;;;;;;;24.80;14.43;;;13.50;35.70;;;;;;5006898;28;20029;-80
2023/04/17 05:55:00;;;;;;;22.75;15.07;;;13.90;35.10;;;;;;4998227;28;20038;-82
2023/04/17 05:57:26;;;;;;;20.98;13.45;;;14.40;34.80;;;;;;4998548;28;20106;-78
2023/04/17 05:59:52;;;;;;;41.05;15.93;;;14.90;34.40;;;;;;5011389;28;20066;-80
2023/04/17 06:02:18;;;;;;;26.40;14.77;;;15.20;33.80;;;;;;4986786;28;20046;-80
2023/04/17 06:04:44;;;;;;;22.63;15.45;;;15.30;33.40;;;;;;5002048;28;20030;-81
2023/04/17 06:07:10;;;;;;;23.33;16.23;;;15.20;33.40;;;;;;4988830;28;20058;-79
2023/04/17 06:09:37;;;;;;;21.88;16.15;;;15.20;33.40;;;;;;4981912;28;20105;-80
2023/04/17 06:12:04;;;;;;;29.20;17.00;;;15.00;33.50;;;;;;4981336;28;20430;-79
2023/04/17 06:14:30;;;;;;;25.20;16.20;;;14.90;34.10;;;;;;4983315;28;20026;-82
2023/04/17 06:16:56;;;;;;;34.75;20.77;;;15.00;34.10;;;;;;5002526;28;20045;-82
2023/04/17 06:19:23;;;;;;;36.22;18.88;;;15.00;34.10;;;;;;4988958;28;20051;-81
2023/04/17 06:21:49;;;;;;;32.73;17.77;;;15.00;34.00;;;;;;5004654;28;20018;-80
2023/04/17 06:24:15;;;;;;;30.55;18.10;;;15.00;34.10;;;;;;4991108;28;20031;-80
2023/04/17 06:26:41;;;;;;;28.20;18.90;;;15.00;34.70;;;;;;4994238;28;20038;-81
2023/04/17 06:29:07;;;;;;;31.77;18.90;;;14.90;34.10;;;;;;4997336;28;20031;-79
2023/04/17 06:31:33;;;;;;;32.75;18.27;;;14.90;34.20;;;;;;4984218;28;20065;-81
2023/04/17 06:33:59;;;;;;;33.35;18.67;;;14.80;34.10;;;;;;4995541;28;20620;-81
2023/04/17 06:36:26;;;;;;;68.28;23.20;;;14.70;34.10;;;;;;4997145;28;20031;-81
2023/04/17 06:38:52;;;;;;;35.25;19.63;;;14.60;34.60;;;;;;4998254;28;20130;-81
2023/04/17 06:41:18;;;;;;;37.72;20.13;;;14.40;34.50;;;;;;4994078;28;20069;-80
2023/04/17 06:43:43;;;;;;;39.95;19.13;;;14.30;34.90;;;;;;5001703;28;20103;-84
2023/04/17 06:46:09;;;;;;;37.10;19.90;;;14.20;35.00;;;;;;4984238;28;20081;-79
2023/04/17 06:48:35;;;;;;;38.15;19.88;;;14.20;35.20;;;;;;4998269;28;20447;-79
2023/04/17 06:51:01;;;;;;;36.50;19.02;;;14.30;35.30;;;;;;4989816;28;20014;-80
2023/04/17 06:53:27;;;;;;;37.13;19.33;;;14.30;35.20;;;;;;5000020;28;20022;-82
2023/04/17 06:55:53;;;;;;;49.75;19.13;;;14.20;34.90;;;;;;5001386;28;20021;-81
2023/04/17 06:58:19;;;;;;;37.08;19.13;;;14.30;34.80;;;;;;5002025;28;20042;-81
2023/04/17 07:00:45;;;;;;;39.17;19.00;;;14.50;35.00;;;;;;4998568;28;20045;-81
2023/04/17 07:03:13;;;;;;;29.77;17.40;;;14.70;34.90;;;;;;5017748;28;20495;-80
2023/04/17 07:05:40;;;;;;;38.05;18.92;;;14.70;34.60;;;;;;5019137;28;20017;-82
2023/04/17 07:08:06;;;;;;;34.90;17.73;;;14.80;34.70;;;;;;5023808;28;20041;-82
2023/04/17 07:10:32;;;;;;;30.92;19.58;;;14.90;34.60;;;;;;5001071;28;20040;-80
2023/04/17 07:12:58;;;;;;;33.53;18.05;;;15.20;34.60;;;;;;5018515;28;20025;-82
2023/04/17 07:15:27;;;;;;;44.17;20.65;;;15.10;35.00;;;;;;5002710;28;20026;-83
2023/04/17 07:17:53;;;;;;;29.85;17.17;;;15.20;34.40;;;;;;5020586;28;20089;-80
2023/04/17 07:20:20;;;;;;;30.60;17.88;;;;;;;;;;5020012;28;20493;-81
2023/04/17 07:22:46;;;;;;;26.90;17.35;;;15.50;33.50;;;;;;5003714;28;20030;-81
2023/04/17 07:25:12;;;;;;;31.17;17.10;;;15.90;33.80;;;;;;5001831;28;20072;-80
2023/04/17 07:27:38;;;;;;;27.60;16.98;;;16.30;33.40;;;;;;5020367;28;20022;-81
2023/04/17 07:30:07;;;;;;;25.40;15.10;;;16.50;32.80;;;;;;5016992;28;20030;-82
2023/04/17 07:32:33;;;;;;;27.52;17.75;;;16.60;32.40;;;;;;5009872;28;20018;-79
2023/04/17 07:34:59;;;;;;;23.52;16.90;;;16.80;32.40;;;;;;4999952;28;20180;-81
2023/04/17 07:37:28;;;;;;;27.55;17.52;;;17.10;32.20;;;;;;5019967;28;20069;-81
2023/04/17 07:39:53;;;;;;;36.63;17.50;;;17.70;31.90;;;;;;4999344;28;20045;-82
2023/04/17 07:42:19;;;;;;;33.40;17.23;;;18.20;31.40;;;;;;4996020;28;20026;-81
2023/04/17 07:44:47;;;;;;;47.95;22.13;;;18.40;31.10;;;;;;5015898;28;20045;-80
2023/04/17 07:47:13;;;;;;;34.97;19.05;;;18.90;31.10;;;;;;5001068;28;20034;-79
2023/04/17 07:49:39;;;;;;;26.73;18.88;;;19.10;30.50;;;;;;5002816;28;20377;-82
2023/04/17 07:52:05;;;;;;;29.27;18.00;;;19.00;30.50;;;;;;5007574;28;20042;-80
2023/04/17 07:54:31;;;;;;;33.97;17.02;;;18.90;30.40;;;;;;5012720;28;20049;-81
2023/04/17 07:57:01;;;;;;;28.48;18.13;;;19.30;30.50;;;;;;5026781;28;20445;-79
2023/04/17 07:59:28;;;;;;;23.70;14.00;;;19.80;30.00;;;;;;5022889;28;20112;-81
2023/04/17 08:01:54;;;;;;;14.40;8.85;;;20.10;29.60;;;;;;5021873;28;20120;-81
2023/04/17 08:04:20;;;;;;;14.13;8.75;;;19.20;29.80;;;;;;5039859;28;20072;-80
2023/04/17 08:06:46;;;;;;;13.70;8.60;;;18.80;30.80;;;;;;5036314;28;20017;-81
2023/04/17 08:09:12;;;;;;;12.52;7.57;;;19.60;30.20;;;;;;5011437;28;20030;-80
2023/04/17 08:11:38;;;;;;;14.48;8.80;;;20.90;29.40;;;;;;5012456;28;20042;-81
2023/04/17 08:14:04;;;;;;;10.20;7.70;;;23.10;28.50;;;;;;5011984;28;20090;-79
2023/04/17 08:16:30;;;;;;;12.38;8.48;;;23.50;27.60;;;;;;5013331;28;20026;-79
2023/04/17 08:18:56;;;;;;;6.93;5.27;;;24.70;27.10;;;;;;5025752;28;20065;-81
2023/04/17 08:21:22;;;;;;;10.52;5.63;;;25.70;26.10;;;;;;5006314;28;20026;-80
2023/04/17 08:23:48;;;;;;;10.45;5.35;;;25.60;25.30;;;;;;5018550;28;20022;-80
2023/04/17 08:26:17;;;;;;;8.10;5.43;;;25.00;25.90;;;;;;5019033;28;20025;-81
2023/04/17 08:28:44;;;;;;;7.25;5.95;;;25.70;25.80;;;;;;5025390;28;20044;-81
2023/04/17 08:31:10;;;;;;;10.52;5.82;;;26.60;25.30;;;;;;5030873;28;20037;-79
2023/04/17 08:33:36;;;;;;;12.38;7.32;;;27.10;25.20;;;;;;5027370;28;20022;-79
2023/04/17 08:36:02;;;;;;;11.70;4.88;;;27.20;25.10;;;;;;5036258;28;20317;-80
2023/04/17 08:38:30;;;;;;;6.97;5.20;;;26.40;24.90;;;;;;5004814;28;20069;-80
2023/04/17 08:40:58;;;;;;;;;;;24.30;25.30;;;;;;5023401;28;20470;-81
2023/04/17 08:43:28;;;;;;;8.30;5.75;;;23.20;26.30;;;;;;5026874;28;19952;-81
2023/04/17 08:45:55;;;;;;;13.93;5.47;;;22.40;26.50;;;;;;5038984;28;20022;-81
2023/04/17 08:48:23;;;;;;;14.60;6.63;;;22.50;26.80;;;;;;5037452;28;20025;-82
2023/04/17 08:50:51;;;;;;;8.02;5.45;;;23.20;26.40;;;;;;5008741;28;20086;-80
2023/04/17 08:53:17;;;;;;;12.45;5.43;;;24.90;25.90;;;;;;5018511;28;20022;-81
2023/04/17 08:55:44;;;;;;;8.90;5.80;;;26.40;25.30;;;;;;5016002;28;20017;-81
2023/04/17 08:58:11;;;;;;;;;;;26.50;24.60;;;;;;5046591;28;20045;-81
2023/04/17 09:00:39;;;;;;;13.18;6.68;;;25.90;25.20;;;;;;5025323;28;20381;-79
2023/04/17 09:03:07;;;;;;;12.35;7.07;;;25.00;25.10;;;;;;5022162;28;20069;-81
2023/04/17 09:05:37;;;;;;;14.38;6.05;;;24.40;25.40;;;;;;5039472;28;20027;-80
2023/04/17 09:08:20;;;;;;;6.95;5.15;;;24.10;25.60;;;;;;5020215;28;20018;-81
2023/04/17 09:10:48;;;;;;;8.90;4.80;;;23.90;25.40;;;;;;5011369;28;20483;-82
2023/04/17 09:13:16;;;;;;;6.55;4.30;;;24.60;24.90;;;;;;5008443;28;20037;-80
2023/04/17 09:15:44;;;;;;;7.88;5.57;;;24.70;24.70;;;;;;5008221;28;20046;-81
2023/04/17 09:18:29;;;;;;;11.05;6.15;;;23.60;25.30;;;;;;5042266;28;20033;-81
2023/04/17 09:20:57;;;;;;;7.05;4.93;;;22.60;26.00;;;;;;5005909;28;20025;-81
2023/04/17 09:23:28;;;;;;;8.13;6.10;;;21.90;26.30;;;;;;5028727;28;20037;-82
2023/04/17 09:26:13;;;;;;;6.78;5.15;;;22.20;26.90;;;;;;5024687;28;20068;-81
2023/04/17 09:28:42;;;;;;;13.55;6.80;;;23.20;26.20;;;;;;5015625;28;20026;-82
2023/04/17 09:31:17;;;;;;;9.65;5.03;;;23.20;26.20;;;;;;5019364;28;20468;-82
2023/04/17 09:34:10;;;;;;;7.03;5.07;;;23.00;26.30;;;;;;5023196;28;20021;-80
2023/04/17 09:36:38;;;;;;;9.93;6.25;;;22.70;26.20;;;;;;5002247;28;20065;-83
2023/04/17 09:39:24;;;;;;;7.43;5.65;;;22.00;26.60;;;;;;4999476;28;20034;-80
2023/04/17 09:42:05;;;;;;;8.77;6.17;;;21.30;27.20;;;;;;5004497;28;20034;-82
2023/04/17 09:44:31;;;;;;;7.75;5.10;;;20.70;27.70;;;;;;5041460;28;20029;-82
2023/04/17 09:46:59;;;;;;;10.50;6.15;;;20.30;28.00;;;;;;5013433;28;20420;-81
2023/04/17 09:49:35;;;;;;;15.00;6.50;;;19.70;28.40;;;;;;5028722;28;20606;-81
2023/04/17 09:52:02;;;;;;;9.85;6.53;;;19.70;28.70;;;;;;5024153;28;20026;-79
2023/04/17 09:54:32;;;;;;;9.93;5.75;;;19.70;29.00;;;;;;5011504;28;20026;-79
2023/04/17 09:57:02;;;;;;;9.98;6.40;;;19.40;29.10;;;;;;5027504;28;20030;-81
2023/04/17 09:59:29;;;;;;;10.25;6.40;;;18.80;29.60;;;;;;5011590;28;20034;-79
2023/04/17 10:01:55;;;;;;;11.73;6.63;;;18.90;29.50;;;;;;5025424;28;20080;-80
2023/04/17 10:04:21;;;;;;;11.02;7.25;;;19.10;30.00;;;;;;5024127;28;20038;-80
2023/04/17 10:06:49;;;;;;;10.55;5.95;;;19.10;29.40;;;;;;5031640;28;20484;-80
2023/04/17 10:09:15;;;;;;;9.32;6.60;;;19.10;29.50;;;;;;5022414;28;20029;-80
2023/04/17 10:11:44;;;;;;;8.02;6.18;;;19.30;29.40;;;;;;5004539;28;20046;-81
2023/04/17 10:14:25;;;;;;;8.48;6.10;;;19.50;29.40;;;;;;5016773;28;20038;-81
2023/04/17 10:16:52;;;;;;;8.63;6.43;;;19.40;29.40;;;;;;5011502;28;20017;-82
2023/04/17 10:19:35;;;;;;;8.48;6.35;;;19.80;29.40;;;;;;5024309;28;20479;-81
2023/04/17 10:22:19;;;;;;;10.68;7.05;;;20.00;29.30;;;;;;5011494;28;20022;-80
2023/04/17 10:24:52;;;;;;;9.07;6.00;;;19.80;29.50;;;;;;5026902;28;20025;-80
2023/04/17 10:27:41;;;;;;;9.95;5.55;;;19.60;29.60;;;;;;5031370;28;20082;-81
2023/04/17 10:30:11;;;;;;;7.15;5.25;;;19.20;29.60;;;;;;5026947;28;20076;-81
2023/04/17 10:32:40;;;;;;;10.98;5.63;;;18.90;30.00;;;;;;5013770;28;20124;-81
2023/04/17 10:35:15;;;;;;;6.45;4.93;;;18.80;30.10;;;;;;5025128;28;20026;-82
2023/04/17 10:38:07;;;;;;;9.07;5.53;;;18.80;30.20;;;;;;5022040;28;20033;-82
2023/04/17 10:40:37;;;;;;;6.72;4.90;;;18.60;30.40;;;;;;4925421;29;20063;-81
2023/04/17 10:43:11;;;;;;;12.02;6.18;;;18.10;30.60;;;;;;4926304;29;20040;-82
2023/04/17 10:46:01;;;;;;;8.30;5.30;;;17.80;31.10;;;;;;4945393;29;20036;-81
2023/04/17 10:48:43;;;;;;;10.02;5.03;;;17.80;31.20;;;;;;4934960;29;20111;-82
2023/04/17 10:51:26;;;;;;;6.30;5.15;;;17.60;31.40;;;;;;4929961;29;20155;-83
2023/04/17 10:54:00;;;;;;;9.93;5.35;;;17.60;31.60;;;;;;4933626;29;20035;-82
2023/04/17 10:56:29;;;;;;;8.60;5.50;;;17.70;31.70;;;;;;4940397;29;20024;-82
2023/04/17 10:59:12;;;;;;;9.90;5.22;;;17.80;31.60;;;;;;4911635;29;20059;-82
2023/04/17 11:01:46;;;;;;;7.43;4.82;;;17.90;31.80;;;;;;4908938;29;20048;-82
2023/04/17 11:04:20;;;;;;;8.23;5.00;;;18.20;31.50;;;;;;4935559;29;20441;-80
2023/04/17 11:06:47;;;;;;;7.47;5.05;;;18.40;31.20;;;;;;4919633;29;20024;-82
2023/04/17 11:09:13;;;;;;;12.27;5.30;;;18.40;31.20;;;;;;4918515;29;20481;-81
2023/04/17 11:11:42;;;;;;;7.95;6.05;;;18.50;31.20;;;;;;4939756;29;20135;-81
2023/04/17 11:14:22;;;;;;;12.10;7.03;;;18.60;31.30;;;;;;4927206;29;20128;-82
2023/04/17 11:16:50;;;;;;;11.73;6.75;;;18.90;31.10;;;;;;4937621;28;20057;-82
2023/04/17 11:19:23;;;;;;;11.65;6.90;;;18.90;31.10;;;;;;5033923;28;20037;-81
2023/04/17 11:21:56;;;;;;;8.45;5.30;;;19.00;31.10;;;;;;5014033;28;20014;-82
2023/04/17 11:24:29;;;;;;;11.48;6.55;;;19.00;30.70;;;;;;5018500;28;20410;-82
2023/04/17 11:27:00;;;;;;;7.43;4.60;;;18.80;31.10;;;;;;5026671;28;20028;-81
2023/04/17 11:29:27;;;;;;;11.70;5.40;;;18.90;31.00;;;;;;5015606;28;20026;-81
2023/04/17 11:31:55;;;;;;;6.50;4.10;;;18.80;31.30;;;;;;5037840;28;20017;-81
2023/04/17 11:34:22;;;;;;;9.98;5.00;;;18.70;31.20;;;;;;5031521;28;20317;-81
2023/04/17 11:36:58;;;;;;;5.10;3.83;;;18.80;31.60;;;;;;5020856;28;20381;-82
2023/04/17 11:39:27;;;;;;;5.38;4.75;;;18.50;30.80;;;;;;5020640;28;20069;-82
2023/04/17 11:41:55;;;;;;;8.63;4.95;;;18.00;31.00;;;;;;5021615;28;20084;-82
2023/04/17 11:44:22;;;;;;;8.18;5.18;;;17.60;31.30;;;;;;5024104;28;20112;-80
2023/04/17 11:46:53;;;;;;;8.60;5.13;;;17.60;32.10;;;;;;5005394;28;20538;-83
2023/04/17 11:49:32;;;;;;;8.82;4.68;;;18.00;32.00;;;;;;5031661;28;20286;-81
2023/04/17 11:52:03;;;;;;;16.85;7.25;;;18.20;31.50;;;;;;5026484;28;20033;-82
2023/04/17 11:54:33;;;;;;;7.45;5.50;;;18.40;31.90;;;;;;5021967;28;20117;-81
2023/04/17 11:57:05;;;;;;;16.42;5.57;;;18.50;31.90;;;;;;5025222;28;20045;-82
2023/04/17 11:59:36;;;;;;;8.85;5.65;;;18.50;31.40;;;;;;5035367;28;20037;-82
2023/04/17 12:02:03;;;;;;;8.00;5.35;;;18.20;31.90;;;;;;5015311;28;20050;-81
2023/04/17 12:04:32;;;;;;;9.07;6.28;;;18.10;31.90;;;;;;4995221;28;20037;-81
2023/04/17 12:07:02;;;;;;;12.70;6.22;;;18.20;32.00;;;;;;5007726;28;20409;-81
2023/04/17 12:09:30;;;;;;;10.48;6.30;;;18.40;32.20;;;;;;5004778;28;20499;-82
2023/04/17 12:12:01;;;;;;;8.32;5.50;;;18.60;32.30;;;;;;5017368;28;20029;-82
2023/04/17 12:14:27;;;;;;;7.97;5.65;;;18.70;31.90;;;;;;4998467;28;20037;-82
2023/04/17 12:16:53;;;;;;;9.68;5.90;;;18.50;31.90;;;;;;5018237;28;20097;-81
2023/04/17 12:19:18;;;;;;;8.52;5.80;;;18.40;32.20;;;;;;5005266;28;20038;-82
2023/04/17 12:21:46;;;;;;;7.75;4.93;;;18.30;32.40;;;;;;5016116;28;20021;-81
2023/04/17 12:24:13;;;;;;;8.32;6.57;;;18.30;32.60;;;;;;5007811;28;20090;-81
2023/04/17 12:26:46;;;;;;;14.10;6.10;;;18.20;32.70;;;;;;4994773;28;20046;-81
2023/04/17 12:29:13;;;;;;;13.02;6.15;;;18.10;32.90;;;;;;5006006;28;20515;-80
2023/04/17 12:31:39;;;;;;;9.18;5.80;;;18.20;32.70;;;;;;5000722;28;20026;-81
2023/04/17 12:34:05;;;;;;;8.82;5.97;;;17.90;32.60;;;;;;5004256;28;20048;-81
2023/04/17 12:36:31;;;;;;;7.85;5.55;;;17.70;32.80;;;;;;5005581;28;20472;-83
2023/04/17 12:38:57;;;;;;;8.98;6.53;;;17.60;32.80;;;;;;5013438;28;20026;-81